createdAt,value
2023-03-13T00:01:19.451Z,-0.45
2023-03-13T00:03:48.676Z,-0.42
2023-03-13T00:06:17.381Z,-0.42
2023-03-13T00:08:46.406Z,-0.42
2023-03-13T00:11:16.498Z,-0.20
2023-03-13T00:13:45.810Z,-0.36
2023-03-13T00:16:16.569Z,-0.35
2023-03-13T00:18:49.068Z,-0.32
2023-03-13T00:21:18.488Z,-0.36
2023-03-13T00:23:47.649Z,-0.80
2023-03-13T00:26:17.315Z,-0.33
2023-03-13T00:28:46.394Z,-0.55
2023-03-13T00:31:17.657Z,-0.22
2023-03-13T00:33:47.936Z,-0.24
2023-03-13T00:36:17.838Z,-0.17
2023-03-13T00:38:46.877Z,-0.18
2023-03-13T00:41:16.547Z,-0.20
2023-03-13T00:43:45.928Z,-0.17
2023-03-13T00:46:15.431Z,-0.28
2023-03-13T00:48:46.028Z,-0.32
2023-03-13T00:51:15.278Z,-0.33
2023-03-13T00:53:44.251Z,-0.28
2023-03-13T00:56:13.859Z,-0.41
2023-03-13T00:58:43.659Z,-0.17
2023-03-13T01:01:13.387Z,-0.39
2023-03-13T01:03:42.931Z,-0.36
2023-03-13T01:06:14.754Z,-0.33
2023-03-13T01:08:43.437Z,-0.35
2023-03-13T01:11:13.299Z,-0.20
2023-03-13T01:13:42.202Z,-0.39
2023-03-13T01:16:12.532Z,-0.35
2023-03-13T01:18:42.546Z,-0.30
2023-03-13T01:21:14.348Z,-0.21
2023-03-13T01:23:43.495Z,-0.41
2023-03-13T01:26:12.429Z,-0.41
2023-03-13T01:28:41.232Z,-0.41
2023-03-13T01:31:14.385Z,-0.52
2023-03-13T01:33:43.522Z,-0.61
2023-03-13T01:36:13.746Z,-0.46
2023-03-13T01:38:42.841Z,-0.56
2023-03-13T01:41:13.364Z,-0.43
2023-03-13T01:43:42.141Z,-0.43
2023-03-13T01:46:16.549Z,-0.53
2023-03-13T01:48:55.339Z,-0.56
2023-03-13T01:51:28.566Z,-0.50
2023-03-13T01:54:01.932Z,-0.61
2023-03-13T01:56:33.477Z,-0.59
2023-03-13T01:59:02.212Z,-0.53
2023-03-13T02:01:31.291Z,-0.62
2023-03-13T02:04:00.212Z,-0.63
2023-03-13T02:06:32.891Z,-0.48
2023-03-13T02:09:05.781Z,-0.63
2023-03-13T02:11:41.096Z,-0.59
2023-03-13T02:14:09.751Z,-1.05
2023-03-13T02:16:38.675Z,-0.74
2023-03-13T02:19:14.608Z,-0.47
2023-03-13T02:21:48.393Z,-0.34
2023-03-13T02:24:22.260Z,-0.42
2023-03-13T02:26:52.371Z,-0.40
2023-03-13T02:29:22.190Z,-0.48
2023-03-13T02:31:51.301Z,-0.43
2023-03-13T02:34:22.796Z,-0.56
2023-03-13T02:36:51.621Z,-0.59
2023-03-13T02:39:24.089Z,-0.47
2023-03-13T02:41:55.312Z,-0.50
2023-03-13T02:44:24.163Z,-0.50
2023-03-13T02:46:53.528Z,-0.42
2023-03-13T02:49:27.806Z,-0.49
2023-03-13T02:51:59.555Z,-0.59
2023-03-13T02:54:30.399Z,-0.59
2023-03-13T02:57:03.141Z,-0.38
2023-03-13T02:59:32.513Z,-0.63
2023-03-13T03:02:01.388Z,-0.56
2023-03-13T03:04:30.228Z,-0.54
2023-03-13T03:06:59.024Z,-0.64
2023-03-13T03:09:27.727Z,-0.60
2023-03-13T03:12:01.458Z,-0.68
2023-03-13T03:14:31.616Z,-0.85
2023-03-13T03:17:00.233Z,-0.71
2023-03-13T03:19:47.865Z,-0.69
2023-03-13T03:22:16.976Z,-0.54
2023-03-13T03:24:45.834Z,-0.60
2023-03-13T03:27:16.187Z,-0.51
2023-03-13T03:29:50.678Z,-0.64
2023-03-13T03:32:19.477Z,-0.70
2023-03-13T03:34:48.260Z,-0.68
2023-03-13T03:37:17.247Z,-0.70
2023-03-13T03:39:46.151Z,-0.65
2023-03-13T03:42:16.250Z,-0.63
2023-03-13T03:44:45.568Z,-0.76
2023-03-13T03:47:15.921Z,-0.70
2023-03-13T03:49:47.701Z,-0.67
2023-03-13T03:52:17.658Z,-0.69
2023-03-13T03:54:47.038Z,-0.70
2023-03-13T03:57:18.498Z,-0.70
2023-03-13T03:59:48.274Z,-0.67
2023-03-13T04:02:18.009Z,-0.86
2023-03-13T04:04:47.752Z,-0.76
2023-03-13T04:07:23.947Z,-0.72
2023-03-13T04:09:53.480Z,-0.87
2023-03-13T04:12:40.934Z,-0.83
2023-03-13T04:15:10.841Z,-0.70
2023-03-13T04:17:42.700Z,-0.78
2023-03-13T04:20:17.893Z,-0.73
2023-03-13T04:22:46.899Z,-0.70
2023-03-13T04:25:17.056Z,-0.70
2023-03-13T04:27:48.157Z,-0.67
2023-03-13T04:30:18.796Z,-0.60
2023-03-13T04:33:22.226Z,-0.49
2023-03-13T04:36:11.119Z,-0.49
2023-03-13T04:38:58.652Z,-0.46
2023-03-13T04:41:56.112Z,-0.51
2023-03-13T04:44:45.517Z,-0.56
2023-03-13T04:47:22.113Z,-0.59
2023-03-13T04:50:11.382Z,-0.37
2023-03-13T04:52:49.722Z,-0.38
2023-03-13T04:55:45.218Z,-0.46
2023-03-13T04:58:52.632Z,-0.07
2023-03-13T05:01:59.547Z,0.10
2023-03-13T05:04:50.579Z,0.04
2023-03-13T05:07:49.865Z,-0.22
2023-03-13T05:10:42.959Z,-0.21
2023-03-13T05:13:26.608Z,-0.02
2023-03-13T05:16:20.065Z,0.18
2023-03-13T05:19:43.532Z,-0.20
2023-03-13T05:22:36.430Z,0.03
2023-03-13T05:25:27.326Z,0.24
2023-03-13T05:27:56.149Z,0.46
2023-03-13T05:30:36.909Z,0.82
2023-03-13T05:33:19.403Z,0.95
2023-03-13T05:36:09.765Z,0.71
2023-03-13T05:38:53.563Z,0.95
2023-03-13T05:41:45.539Z,0.97
2023-03-13T05:44:43.492Z,1.51
2023-03-13T05:47:33.033Z,2.08
2023-03-13T05:50:11.715Z,1.93
2023-03-13T05:52:58.817Z,2.11
2023-03-13T05:55:42.693Z,2.27
2023-03-13T05:58:46.061Z,2.32
2023-03-13T06:01:53.420Z,2.87
2023-03-13T06:04:30.476Z,2.40
2023-03-13T06:06:59.628Z,2.76
2023-03-13T06:09:30.170Z,3.40
2023-03-13T06:12:04.746Z,3.13
2023-03-13T06:14:34.264Z,2.57
2023-03-13T06:17:22.030Z,3.46
2023-03-13T06:19:51.289Z,3.37
2023-03-13T06:22:23.299Z,3.38
2023-03-13T06:24:52.698Z,3.65
2023-03-13T06:27:23.170Z,3.52
2023-03-13T06:29:52.100Z,3.23
2023-03-13T06:32:21.087Z,2.88
2023-03-13T06:34:50.142Z,2.89
2023-03-13T06:37:19.380Z,2.73
2023-03-13T06:39:48.282Z,3.42
2023-03-13T06:42:17.816Z,3.81
2023-03-13T06:44:47.994Z,3.76
2023-03-13T06:47:17.130Z,3.48
2023-03-13T06:49:46.065Z,3.36
2023-03-13T06:52:15.117Z,3.15
2023-03-13T06:54:43.907Z,3.18
2023-03-13T06:57:12.859Z,3.01
2023-03-13T06:59:41.683Z,2.96
2023-03-13T07:02:12.826Z,3.10
2023-03-13T07:04:45.268Z,3.63
2023-03-13T07:07:25.817Z,4.13
2023-03-13T07:10:00.674Z,3.71
2023-03-13T07:12:30.165Z,3.70
2023-03-13T07:14:59.468Z,3.71
2023-03-13T07:17:32.873Z,3.94
2023-03-13T07:20:10.852Z,3.93
2023-03-13T07:22:39.818Z,3.74
2023-03-13T07:25:09.675Z,4.08
2023-03-13T07:27:39.201Z,5.14
2023-03-13T07:30:08.625Z,4.19
2023-03-13T07:32:39.251Z,4.53
2023-03-13T07:35:08.435Z,5.21
2023-03-13T07:37:37.617Z,4.56
2023-03-13T07:40:07.035Z,4.35
2023-03-13T07:42:36.231Z,4.81
2023-03-13T07:45:05.433Z,5.27
2023-03-13T07:47:35.790Z,5.27
2023-03-13T07:50:06.759Z,5.36
2023-03-13T07:52:39.594Z,6.24
2023-03-13T07:55:09.085Z,5.19
2023-03-13T07:57:38.610Z,4.42
2023-03-13T08:00:11.971Z,5.34
2023-03-13T08:02:41.202Z,4.54
2023-03-13T08:05:11.513Z,4.84
2023-03-13T08:07:40.771Z,6.16
2023-03-13T08:10:10.567Z,7.08
2023-03-13T08:12:40.082Z,5.71
2023-03-13T08:15:09.837Z,5.90
2023-03-13T08:17:41.148Z,5.49
2023-03-13T08:20:12.628Z,6.33
2023-03-13T08:22:41.760Z,7.32
2023-03-13T08:25:10.965Z,6.68
2023-03-13T08:27:40.072Z,7.02
2023-03-13T08:30:09.774Z,6.32
2023-03-13T08:32:39.204Z,7.00
2023-03-13T08:35:08.713Z,6.84
2023-03-13T08:37:38.964Z,6.80
2023-03-13T08:40:18.086Z,6.49
2023-03-13T08:42:50.287Z,6.60
2023-03-13T08:45:22.579Z,6.35
2023-03-13T08:47:56.710Z,7.43
2023-03-13T08:50:25.473Z,7.63
2023-03-13T08:53:03.414Z,7.32
2023-03-13T08:55:34.342Z,6.93
2023-03-13T08:58:08.800Z,6.78
2023-03-13T09:00:37.816Z,7.31
2023-03-13T09:03:06.559Z,8.13
2023-03-13T09:05:54.641Z,8.02
2023-03-13T09:08:26.438Z,7.27
2023-03-13T09:10:59.448Z,7.82
2023-03-13T09:13:29.564Z,8.76
2023-03-13T09:15:59.638Z,7.77
2023-03-13T09:18:29.267Z,8.94
2023-03-13T09:20:58.238Z,8.50
2023-03-13T09:23:29.173Z,7.72
2023-03-13T09:25:58.735Z,8.23
2023-03-13T09:28:28.059Z,7.63
2023-03-13T09:30:57.500Z,8.45
2023-03-13T09:33:26.843Z,7.44
2023-03-13T09:35:58.935Z,8.02
2023-03-13T09:38:29.623Z,8.11
2023-03-13T09:41:06.200Z,8.26
2023-03-13T09:43:41.961Z,9.45
2023-03-13T09:46:14.748Z,9.45
2023-03-13T09:48:45.367Z,9.72
2023-03-13T09:51:33.124Z,8.63
2023-03-13T09:54:07.585Z,10.33
2023-03-13T09:56:41.176Z,10.21
2023-03-13T09:59:15.396Z,10.63
2023-03-13T10:01:45.969Z,10.01
2023-03-13T10:04:25.967Z,9.33
2023-03-13T10:06:55.238Z,8.27
2023-03-13T10:09:30.553Z,9.22
2023-03-13T10:12:05.228Z,8.48
2023-03-13T10:14:38.659Z,8.88
2023-03-13T10:17:11.841Z,8.42
2023-03-13T10:19:43.642Z,7.62
2023-03-13T10:22:14.773Z,8.80
2023-03-13T10:24:48.413Z,8.92
2023-03-13T10:27:20.325Z,7.71
2023-03-13T10:29:49.710Z,7.99
2023-03-13T10:32:19.281Z,7.95
2023-03-13T10:34:52.440Z,7.93
2023-03-13T10:37:23.783Z,7.57
2023-03-13T10:39:55.340Z,7.76
2023-03-13T10:42:29.185Z,7.52
2023-03-13T10:44:59.772Z,7.90
2023-03-13T10:47:29.326Z,8.38
2023-03-13T10:49:59.097Z,10.61
2023-03-13T10:52:33.268Z,9.10
2023-03-13T10:55:05.729Z,9.15
2023-03-13T10:57:36.511Z,9.77
2023-03-13T11:00:11.358Z,9.65
2023-03-13T11:02:41.001Z,9.89
2023-03-13T11:05:25.011Z,10.04
2023-03-13T11:07:54.548Z,10.05
2023-03-13T11:10:25.809Z,11.63
2023-03-13T11:12:55.508Z,10.94
2023-03-13T11:15:27.447Z,10.87
2023-03-13T11:18:01.058Z,11.47
2023-03-13T11:20:32.732Z,11.37
2023-03-13T11:23:12.628Z,13.14
2023-03-13T11:25:45.436Z,11.50
2023-03-13T11:28:32.183Z,10.56
2023-03-13T11:31:08.366Z,10.15
2023-03-13T11:33:45.652Z,12.12
2023-03-13T11:36:20.248Z,12.00
2023-03-13T11:38:51.067Z,11.58
2023-03-13T11:41:29.424Z,12.16
2023-03-13T11:44:16.164Z,11.95
2023-03-13T11:46:49.686Z,10.59
2023-03-13T11:49:31.048Z,11.16
2023-03-13T11:52:03.827Z,12.30
2023-03-13T11:54:42.219Z,11.48
2023-03-13T11:57:15.200Z,10.92
2023-03-13T11:59:50.434Z,11.09
2023-03-13T12:02:23.706Z,12.29
2023-03-13T12:04:57.102Z,14.91
2023-03-13T12:07:29.842Z,16.41
2023-03-13T12:10:00.473Z,15.55
2023-03-13T12:12:37.782Z,17.36
2023-03-13T12:15:18.872Z,14.53
2023-03-13T12:17:51.373Z,15.58
2023-03-13T12:20:25.439Z,12.60
2023-03-13T12:22:58.562Z,12.81
2023-03-13T12:25:30.187Z,12.81
2023-03-13T12:28:07.588Z,14.21
2023-03-13T12:30:40.818Z,11.38
2023-03-13T12:33:18.025Z,11.32
2023-03-13T12:35:51.291Z,11.92
2023-03-13T12:38:24.281Z,13.15
2023-03-13T12:41:00.326Z,13.29
2023-03-13T12:43:37.656Z,12.07
2023-03-13T12:46:17.144Z,10.05
2023-03-13T12:48:52.620Z,10.36
2023-03-13T12:51:32.675Z,10.73
2023-03-13T12:54:14.747Z,10.49
2023-03-13T12:56:56.148Z,10.21
2023-03-13T12:59:29.669Z,10.05
2023-03-13T13:02:00.855Z,10.17
2023-03-13T13:04:33.320Z,10.21
2023-03-13T13:07:05.876Z,11.01
2023-03-13T13:09:39.451Z,10.34
2023-03-13T13:12:24.228Z,10.30
2023-03-13T13:15:07.944Z,10.05
2023-03-13T13:17:53.236Z,10.06
2023-03-13T13:20:46.379Z,10.81
2023-03-13T13:23:37.124Z,10.40
2023-03-13T13:26:25.028Z,9.59
2023-03-13T13:28:54.702Z,9.98
2023-03-13T13:31:51.300Z,9.78
2023-03-13T13:34:35.266Z,9.00
2023-03-13T13:37:25.692Z,9.23
2023-03-13T13:39:55.310Z,10.36
2023-03-13T13:42:43.737Z,10.71
2023-03-13T13:45:30.356Z,10.09
2023-03-13T13:48:14.129Z,10.41
2023-03-13T13:50:58.016Z,10.66
2023-03-13T13:53:33.510Z,10.39
2023-03-13T13:56:26.186Z,10.00
2023-03-13T13:58:59.138Z,9.20
2023-03-13T14:01:28.620Z,9.41
2023-03-13T14:04:03.981Z,9.33
2023-03-13T14:06:37.510Z,8.98
2023-03-13T14:09:16.145Z,8.96
2023-03-13T14:11:45.457Z,8.57
2023-03-13T14:14:16.870Z,9.14
2023-03-13T14:16:47.833Z,8.76
2023-03-13T14:19:24.168Z,8.86
2023-03-13T14:21:58.936Z,9.02
2023-03-13T14:24:29.559Z,9.39
2023-03-13T14:26:58.628Z,9.20
2023-03-13T14:29:27.945Z,9.95
2023-03-13T14:31:57.635Z,9.63
2023-03-13T14:34:27.233Z,9.13
2023-03-13T14:37:16.829Z,9.17
2023-03-13T14:39:49.494Z,9.20
2023-03-13T14:42:19.497Z,9.40
2023-03-13T14:44:50.414Z,9.05
2023-03-13T14:47:23.993Z,9.11
2023-03-13T14:50:00.240Z,9.11
2023-03-13T14:52:30.011Z,9.39
2023-03-13T14:55:05.294Z,9.29
2023-03-13T14:57:39.358Z,9.20
2023-03-13T15:00:30.738Z,9.01
2023-03-13T15:03:21.941Z,8.73
2023-03-13T15:06:05.365Z,8.77
2023-03-13T15:08:35.150Z,9.07
2023-03-13T15:11:18.619Z,9.08
2023-03-13T15:13:47.503Z,8.96
2023-03-13T15:16:17.447Z,9.08
2023-03-13T15:18:46.549Z,9.34
2023-03-13T15:21:21.470Z,9.32
2023-03-13T15:23:54.189Z,9.12
2023-03-13T15:26:42.275Z,9.43
2023-03-13T15:29:18.575Z,9.23
2023-03-13T15:31:50.802Z,9.22
2023-03-13T15:34:25.853Z,9.14
2023-03-13T15:36:55.553Z,9.15
2023-03-13T15:39:29.575Z,9.36
2023-03-13T15:42:01.787Z,9.37
2023-03-13T15:44:32.598Z,9.37
2023-03-13T15:47:01.623Z,9.29
2023-03-13T15:49:31.024Z,9.14
2023-03-13T15:52:00.231Z,8.82
2023-03-13T15:54:29.352Z,9.06
2023-03-13T15:56:59.544Z,9.07
2023-03-13T15:59:29.048Z,8.93
2023-03-13T16:01:59.478Z,8.96
2023-03-13T16:04:29.086Z,9.07
2023-03-13T16:06:58.800Z,8.59
2023-03-13T16:09:27.804Z,9.09
2023-03-13T16:11:58.634Z,9.40
2023-03-13T16:14:29.299Z,9.16
2023-03-13T16:16:59.874Z,8.93
2023-03-13T16:19:29.107Z,8.93
2023-03-13T16:21:58.017Z,8.99
2023-03-13T16:24:27.870Z,8.97
2023-03-13T16:26:56.663Z,9.15
2023-03-13T16:29:25.801Z,9.14
2023-03-13T16:31:55.458Z,9.11
2023-03-13T16:34:26.361Z,9.25
2023-03-13T16:36:59.262Z,9.17
2023-03-13T16:39:28.743Z,9.02
2023-03-13T16:41:58.112Z,9.18
2023-03-13T16:44:27.680Z,9.02
2023-03-13T16:47:05.564Z,8.80
2023-03-13T16:49:36.184Z,8.75
2023-03-13T16:52:04.935Z,8.74
2023-03-13T16:54:34.033Z,8.76
2023-03-13T16:57:04.585Z,8.72
2023-03-13T16:59:33.357Z,9.14
2023-03-13T17:02:02.377Z,8.98
2023-03-13T17:04:31.528Z,8.77
2023-03-13T17:07:02.241Z,8.97
2023-03-13T17:09:31.374Z,8.85
2023-03-13T17:12:00.255Z,8.79
2023-03-13T17:14:29.113Z,8.79
2023-03-13T17:16:58.218Z,8.52
2023-03-13T17:19:27.167Z,8.80
2023-03-13T17:21:57.049Z,8.64
2023-03-13T17:24:27.835Z,8.73
2023-03-13T17:26:59.027Z,8.46
2023-03-13T17:30:04.985Z,8.32
2023-03-13T17:32:37.836Z,8.22
2023-03-13T17:35:07.468Z,8.03
2023-03-13T17:37:39.893Z,8.17
2023-03-13T17:40:15.844Z,8.16
2023-03-13T17:42:44.839Z,8.11
2023-03-13T17:45:16.049Z,7.85
2023-03-13T17:47:45.558Z,7.94
2023-03-13T17:50:19.679Z,8.07
2023-03-13T17:52:49.149Z,8.01
2023-03-13T17:55:20.035Z,7.98
2023-03-13T17:57:52.221Z,8.18
2023-03-13T18:00:22.766Z,8.30
2023-03-13T18:02:52.217Z,8.35
2023-03-13T18:05:21.190Z,8.39
2023-03-13T18:07:50.722Z,8.32
2023-03-13T18:10:22.420Z,8.28
2023-03-13T18:12:52.319Z,8.29
2023-03-13T18:15:22.282Z,8.29
2023-03-13T18:18:00.092Z,8.25
2023-03-13T18:20:37.578Z,8.32
2023-03-13T18:23:13.299Z,8.29
2023-03-13T18:25:49.456Z,8.31
2023-03-13T18:28:18.827Z,8.44
2023-03-13T18:30:52.340Z,8.39
2023-03-13T18:33:28.317Z,8.46
2023-03-13T18:35:57.492Z,8.03
2023-03-13T18:38:31.097Z,8.28
2023-03-13T18:41:02.309Z,8.35
2023-03-13T18:43:34.366Z,8.11
2023-03-13T18:46:04.115Z,7.84
2023-03-13T18:48:33.914Z,8.01
2023-03-13T18:51:04.251Z,8.11
2023-03-13T18:53:36.246Z,7.93
2023-03-13T18:56:15.563Z,7.80
2023-03-13T18:58:45.009Z,7.93
2023-03-13T19:01:15.188Z,7.80
2023-03-13T19:03:46.476Z,7.70
2023-03-13T19:06:20.751Z,7.73
2023-03-13T19:08:50.967Z,7.69
2023-03-13T19:11:22.174Z,7.76
2023-03-13T19:13:51.195Z,7.76
2023-03-13T19:16:22.151Z,7.62
2023-03-13T19:18:51.914Z,7.67
2023-03-13T19:21:21.951Z,7.66
2023-03-13T19:24:11.972Z,7.54
2023-03-13T19:26:43.179Z,7.63
2023-03-13T19:29:14.446Z,7.55
2023-03-13T19:31:43.770Z,7.65
2023-03-13T19:34:13.236Z,7.65
2023-03-13T19:36:45.194Z,7.46
2023-03-13T19:39:15.971Z,7.29
2023-03-13T19:41:48.351Z,7.47
2023-03-13T19:44:18.594Z,7.42
2023-03-13T19:46:51.729Z,7.46
2023-03-13T19:49:22.179Z,7.38
2023-03-13T19:51:51.411Z,7.23
2023-03-13T19:54:21.559Z,7.24
2023-03-13T19:56:54.491Z,7.15
2023-03-13T19:59:32.268Z,7.20
2023-03-13T20:02:10.882Z,7.11
2023-03-13T20:04:46.692Z,7.13
2023-03-13T20:07:16.289Z,7.13
2023-03-13T20:09:46.811Z,7.21
2023-03-13T20:12:18.030Z,7.20
2023-03-13T20:14:46.960Z,7.16
2023-03-13T20:17:16.323Z,7.04
2023-03-13T20:19:45.789Z,7.12
2023-03-13T20:22:14.659Z,6.97
2023-03-13T20:24:43.594Z,7.10
2023-03-13T20:27:12.870Z,7.21
2023-03-13T20:29:43.983Z,7.13
2023-03-13T20:32:13.805Z,7.16
2023-03-13T20:34:42.710Z,7.04
2023-03-13T20:37:12.863Z,7.08
2023-03-13T20:39:43.378Z,6.88
2023-03-13T20:42:13.315Z,6.87
2023-03-13T20:44:47.672Z,7.07
2023-03-13T20:47:17.251Z,7.01
2023-03-13T20:50:00.622Z,6.83
2023-03-13T20:52:29.624Z,6.76
2023-03-13T20:54:58.523Z,6.83
2023-03-13T20:57:27.342Z,6.84
2023-03-13T20:59:57.280Z,6.81
2023-03-13T21:02:26.040Z,6.88
2023-03-13T21:04:55.226Z,6.87
2023-03-13T21:07:24.077Z,6.92
2023-03-13T21:09:52.969Z,6.71
2023-03-13T21:12:21.585Z,6.88
2023-03-13T21:14:55.386Z,6.94
2023-03-13T21:17:25.538Z,6.78
2023-03-13T21:19:55.355Z,6.74
2023-03-13T21:22:24.397Z,6.96
2023-03-13T21:24:53.379Z,6.96
2023-03-13T21:27:22.689Z,6.98
2023-03-13T21:29:51.582Z,7.16
2023-03-13T21:32:21.037Z,7.01
2023-03-13T21:34:51.518Z,7.19
2023-03-13T21:37:20.280Z,6.90
2023-03-13T21:39:51.348Z,6.95
2023-03-13T21:42:20.428Z,7.14
2023-03-13T21:44:49.542Z,7.04
2023-03-13T21:47:24.367Z,6.97
2023-03-13T21:49:55.396Z,6.92
2023-03-13T21:52:24.100Z,6.62
2023-03-13T21:54:53.108Z,7.11
2023-03-13T21:57:21.791Z,7.15
2023-03-13T21:59:51.811Z,6.91
2023-03-13T22:02:21.728Z,7.28
2023-03-13T22:05:06.905Z,6.95
2023-03-13T22:07:52.157Z,7.15
2023-03-13T22:10:27.836Z,6.90
2023-03-13T22:15:59.917Z,6.91
2023-03-13T22:18:32.689Z,6.92
2023-03-13T22:21:03.040Z,7.03
2023-03-13T22:23:33.877Z,7.19
2023-03-13T22:26:03.697Z,7.26
2023-03-13T22:28:33.277Z,7.24
2023-03-13T22:31:07.643Z,7.34
2023-03-13T22:33:40.786Z,7.53
2023-03-13T22:36:11.356Z,7.35
2023-03-13T22:38:42.452Z,7.34
2023-03-13T22:41:13.687Z,7.27
2023-03-13T22:43:43.397Z,7.31
2023-03-13T22:46:13.133Z,7.56
2023-03-13T22:48:42.511Z,7.41
2023-03-13T22:51:12.742Z,7.22
2023-03-13T22:53:43.886Z,7.38
2023-03-13T22:56:13.906Z,7.31
2023-03-13T22:58:43.821Z,7.13
2023-03-13T23:01:14.376Z,7.32
2023-03-13T23:03:44.168Z,7.05
2023-03-13T23:06:16.756Z,7.32
2023-03-13T23:08:48.280Z,7.26
2023-03-13T23:11:17.993Z,7.06
2023-03-13T23:13:47.136Z,7.05
2023-03-13T23:16:17.110Z,7.15
2023-03-13T23:18:46.514Z,7.27
2023-03-13T23:21:16.420Z,7.42
2023-03-13T23:23:46.144Z,6.74
2023-03-13T23:26:17.280Z,7.37
2023-03-13T23:28:46.505Z,7.41
2023-03-13T23:31:16.044Z,7.35
2023-03-13T23:33:45.127Z,7.37
2023-03-13T23:36:14.747Z,7.33
2023-03-13T23:38:43.883Z,7.41
2023-03-13T23:41:13.791Z,7.33
2023-03-13T23:43:43.856Z,7.32
2023-03-13T23:46:16.623Z,7.34
2023-03-13T23:48:45.269Z,7.05
2023-03-13T23:51:14.349Z,7.34
2023-03-13T23:53:43.944Z,7.34
2023-03-13T23:56:12.950Z,7.08
2023-03-13T23:58:43.718Z,7.33
